Time;durP1;ratioP1;P1;durP2;ratioP2;P2;SDS_P1;SDS_P2;PMS_P1;PMS_P2;Temp;Humidity;BMP_temperature;BMP_pressure;BME280_temperature;BME280_humidity;BME280_pressure;Samples;Min_cycle;Max_cycle;Signal;HPM_P1;HPM_P2
2022/10/30 00:00:43;;;;;;;16.33;11.90;;;;;;;10.90;100.00;100091.16;6068163;23;20205;-89
2022/10/30 00:03:12;;;;;;;17.30;11.83;;;;;;;10.92;100.00;100094.44;6042667;23;20236;-88
2022/10/30 00:05:46;;;;;;;14.50;10.37;;;;;;;10.87;100.00;100095.06;6042965;23;20210;-89
2022/10/30 00:08:16;;;;;;;12.13;11.03;;;;;;;10.85;100.00;100102.50;6018515;23;20213;-90
2022/10/30 00:10:43;;;;;;;11.60;10.47;;;;;;;10.93;100.00;100098.75;6019478;23;20208;-90
2022/10/30 00:13:10;;;;;;;10.63;9.70;;;;;;;10.88;100.00;100090.53;6042873;23;20217;-90
2022/10/30 00:15:37;;;;;;;13.03;10.37;;;;;;;10.86;100.00;100089.94;6068003;23;20312;-90
2022/10/30 00:18:04;;;;;;;13.00;10.57;;;;;;;10.89;100.00;100093.00;6042153;23;20209;-88
2022/10/30 00:20:30;;;;;;;12.53;9.97;;;;;;;10.83;100.00;100080.44;6042401;23;20216;-88
2022/10/30 00:22:57;;;;;;;11.70;10.43;;;;;;;10.83;100.00;100087.66;6067715;23;20213;-88
2022/10/30 00:25:24;;;;;;;11.57;9.57;;;;;;;10.83;100.00;100083.09;6042333;23;20220;-88
2022/10/30 00:27:51;;;;;;;9.93;9.13;;;;;;;10.81;100.00;100077.16;6042203;23;20222;-88
2022/10/30 00:30:17;;;;;;;10.43;9.53;;;;;;;10.82;100.00;100077.97;6067545;23;20186;-88
2022/10/30 00:32:44;;;;;;;9.50;8.70;;;;;;;10.83;100.00;100079.59;6042485;23;20258;-88
2022/10/30 00:35:11;;;;;;;10.13;9.10;;;;;;;10.73;100.00;100069.31;6067629;23;20232;-89
2022/10/30 00:37:38;;;;;;;14.03;9.17;;;;;;;10.81;100.00;100077.16;6019063;23;20203;-87
2022/10/30 00:40:05;;;;;;;10.80;9.10;;;;;;;10.73;100.00;100069.31;6041950;23;20209;-89
2022/10/30 00:42:32;;;;;;;12.83;9.30;;;;;;;10.67;100.00;100059.47;6043014;23;20279;-89
2022/10/30 00:44:59;;;;;;;14.50;8.57;;;;;;;10.66;100.00;100057.81;6019678;23;20208;-90
2022/10/30 00:47:33;;;;;;;10.00;9.20;;;;;;;10.60;100.00;100061.31;6019177;23;20224;-90
2022/10/30 00:50:06;;;;;;;20.63;10.10;;;;;;;10.65;100.00;100064.19;6018992;23;20219;-90
2022/10/30 00:52:36;;;;;;;19.37;9.10;;;;;;;10.60;100.00;100059.47;6018780;23;20209;-89
2022/10/30 00:55:13;;;;;;;10.00;9.10;;;;;;;10.59;100.00;100060.47;6014100;23;20224;-89
2022/10/30 00:57:40;;;;;;;11.53;9.67;;;;;;;10.59;100.00;100057.81;6037829;23;20218;-88
2022/10/30 01:00:09;;;;;;;19.17;9.90;;;;;;;10.58;100.00;100050.81;5991114;23;20288;-90
2022/10/30 01:02:37;;;;;;;12.87;10.57;;;;;;;10.62;100.00;100050.41;5991016;23;20221;-89
2022/10/30 01:05:04;;;;;;;11.70;10.53;;;;;;;10.66;100.00;100046.25;5987888;23;20232;-90
2022/10/30 01:07:31;;;;;;;11.80;10.70;;;;;;;10.62;100.00;100043.19;5991150;23;20216;-91
2022/10/30 01:09:58;;;;;;;11.10;10.10;;;;;;;10.66;100.00;100055.13;5990658;23;20210;-91
2022/10/30 01:12:25;;;;;;;10.87;9.87;;;;;;;10.67;100.00;100045.22;5990191;23;20201;-90
2022/10/30 01:14:54;;;;;;;13.37;10.10;;;;;;;10.64;100.00;100051.81;6014288;23;20226;-91
2022/10/30 01:17:26;;;;;;;11.43;10.33;;;;;;;10.64;100.00;100048.34;5990540;23;20293;-90
2022/10/30 01:20:31;;;;;;;11.70;9.30;;;;;;;10.67;100.00;100051.41;6037894;23;20329;-89
2022/10/30 01:23:06;;;;;;;9.10;8.30;;;;;;;10.67;100.00;100039.88;5951547;24;20264;-89
2022/10/30 01:25:40;;;;;;;27.00;9.53;;;;;;;10.60;100.00;100035.34;5929113;24;20305;-89
2022/10/30 01:28:37;;;;;;;10.47;9.57;;;;;;;10.65;100.00;100037.41;5989770;23;20211;-88
2022/10/30 01:31:08;;;;;;;9.90;9.00;;;;;;;10.65;100.00;100036.56;6036562;23;20209;-86
2022/10/30 01:33:54;;;;;;;9.70;8.83;;;;;;;10.65;100.00;100034.72;6013791;23;20605;-87
2022/10/30 01:36:23;;;;;;;10.93;9.03;;;;;;;10.64;100.00;100033.06;6036380;23;20218;-90
2022/10/30 01:38:53;;;;;;;10.20;9.10;;;;;;;10.70;100.00;100032.22;6014910;23;20268;-91
2022/10/30 01:41:20;;;;;;;10.47;9.53;;;;;;;10.71;100.00;100028.53;6014498;23;20246;-89
2022/10/30 01:43:50;;;;;;;13.20;10.10;;;;;;;10.64;100.00;100019.66;6014645;23;20240;-89
2022/10/30 01:46:27;;;;;;;10.73;9.80;;;;;;;10.60;100.00;100023.81;6013629;23;20224;-89
2022/10/30 01:48:57;;;;;;;10.40;9.50;;;;;;;10.62;100.00;100023.59;6013928;23;20401;-89
2022/10/30 01:51:25;;;;;;;12.20;10.67;;;;;;;10.64;100.00;100024.22;6014032;23;20214;-88
2022/10/30 01:53:55;;;;;;;16.23;10.53;;;;;;;10.66;100.00;100028.31;6046647;23;20218;-90
2022/10/30 01:56:34;;;;;;;10.90;9.90;;;;;;;10.66;100.00;100020.28;5994764;23;20253;-90
2022/10/30 01:59:18;;;;;;;12.87;10.20;;;;;;;10.64;100.00;100027.69;6041905;23;20232;-89
2022/10/30 02:01:45;;;;;;;15.47;10.80;;;;;;;10.66;100.00;100019.47;6041614;23;20248;-89
2022/10/30 02:04:12;;;;;;;10.53;9.53;;;;;;;10.63;100.00;100018.03;6003933;23;20284;-89
2022/10/30 02:06:39;;;;;;;11.10;10.10;;;;;;;10.62;100.00;100005.66;6041656;23;20667;-89
2022/10/30 02:09:07;;;;;;;11.40;10.40;;;;;;;10.63;100.00;100012.69;6041739;23;20689;-91
2022/10/30 02:11:37;;;;;;;15.07;9.97;;;;;;;10.70;100.00;100015.31;5996140;23;20221;-90
2022/10/30 02:14:06;;;;;;;11.27;10.27;;;;;;;10.63;100.00;100014.53;5994447;23;20257;-90
2022/10/30 02:16:34;;;;;;;11.13;10.07;;;;;;;10.62;100.00;100002.16;6018311;23;20206;-90
2022/10/30 02:19:02;;;;;;;10.67;9.77;;;;;;;10.65;100.00;100004.41;6042186;23;20667;-91
2022/10/30 02:21:29;;;;;;;11.40;10.43;;;;;;;10.70;100.00;100009.97;6019229;23;20214;-91
2022/10/30 02:23:55;;;;;;;11.07;9.97;;;;;;;10.68;100.00;99994.13;5995583;23;20219;-89
2022/10/30 02:26:23;;;;;;;11.47;10.27;;;;;;;10.72;100.00;99997.19;6018158;23;20265;-89
2022/10/30 02:28:50;;;;;;;18.63;10.57;;;;;;;10.72;100.00;99995.34;5995544;23;20205;-92
2022/10/30 02:31:18;;;;;;;13.83;9.77;;;;;;;10.70;100.00;99997.38;6019217;23;20762;-88
2022/10/30 02:33:46;;;;;;;16.97;10.73;;;;;;;10.69;100.00;99994.91;6019871;23;20297;-88
2022/10/30 02:36:15;;;;;;;10.47;9.57;;;;;;;10.69;100.00;100005.63;6019441;23;20284;-89
2022/10/30 02:38:42;;;;;;;11.17;10.10;;;;;;;10.69;100.00;100003.78;6020228;23;20220;-90
2022/10/30 02:41:10;;;;;;;10.83;9.83;;;;;;;10.71;100.00;100001.72;6020666;23;20310;-90
2022/10/30 02:43:37;;;;;;;10.77;9.77;;;;;;;10.75;100.00;100002.13;6043561;23;20209;-89
2022/10/30 02:46:04;;;;;;;11.03;10.03;;;;;;;10.71;100.00;99977.59;6019332;23;20223;-90
2022/10/30 02:48:34;;;;;;;15.33;10.57;;;;;;;10.76;100.00;99991.19;6020597;23;20669;-90
2022/10/30 02:51:02;;;;;;;10.57;9.67;;;;;;;10.74;100.00;99985.22;6043701;23;20213;-90
2022/10/30 02:53:29;;;;;;;11.30;9.20;;;;;;;10.72;100.00;99994.50;6019552;23;20272;-89
2022/10/30 02:55:56;;;;;;;11.60;10.50;;;;;;;10.68;100.00;99987.94;6019478;23;20220;-89
2022/10/30 02:58:22;;;;;;;16.87;9.67;;;;;;;10.66;100.00;99984.63;6043540;23;20207;-89
2022/10/30 03:00:49;;;;;;;13.37;9.70;;;;;;;10.71;100.00;99987.50;6019946;23;20284;-88
2022/10/30 03:03:16;;;;;;;11.10;10.13;;;;;;;10.65;100.00;99985.66;6043275;23;20288;-90
2022/10/30 03:05:48;;;;;;;31.30;10.90;;;;;;;10.70;100.00;99994.72;6020880;23;20682;-91
2022/10/30 03:08:15;;;;;;;17.47;10.57;;;;;;;10.64;100.00;99992.06;5996299;23;20208;-90
2022/10/30 03:10:41;;;;;;;17.10;10.80;;;;;;;10.67;100.00;99988.97;6019512;23;20758;-89
2022/10/30 03:13:08;;;;;;;29.77;9.63;;;;;;;10.69;100.00;100001.09;5996027;23;20210;-87
2022/10/30 03:15:35;;;;;;;35.40;9.93;;;;;;;10.55;100.00;99992.28;6043132;23;20680;-86
2022/10/30 03:18:01;;;;;;;10.07;9.03;;;;;;;10.55;100.00;99994.13;6028314;23;20212;-88
2022/10/30 03:20:28;;;;;;;19.80;9.37;;;;;;;10.57;100.00;99997.44;6068691;23;20284;-88
2022/10/30 03:22:55;;;;;;;10.30;9.03;;;;;;;10.53;100.00;100010.44;6020706;23;20214;-90
2022/10/30 03:25:22;;;;;;;11.77;9.63;;;;;;;10.52;100.00;100006.09;6043423;23;20268;-90
2022/10/30 03:27:53;;;;;;;39.20;9.83;;;;;;;10.56;100.00;100019.91;6043009;23;20209;-90
2022/10/30 03:30:20;;;;;;;23.03;9.73;;;;;;;10.54;100.00;100017.41;6018941;23;20209;-90
2022/10/30 03:32:47;;;;;;;21.13;9.57;;;;;;;10.53;100.00;100012.28;6068681;23;20213;-89
2022/10/30 03:35:13;;;;;;;11.30;9.43;;;;;;;10.55;100.00;100024.44;6043038;23;20219;-90
2022/10/30 03:37:40;;;;;;;17.30;9.57;;;;;;;10.51;100.00;100017.84;6019774;23;20287;-88
2022/10/30 03:40:07;;;;;;;15.57;9.87;;;;;;;10.56;100.00;100020.72;6019799;23;20208;-90
2022/10/30 03:42:38;;;;;;;15.83;9.13;;;;;;;10.56;100.00;100027.94;6019208;23;20252;-88
2022/10/30 03:45:07;;;;;;;22.20;9.60;;;;;;;10.54;100.00;100016.63;6043394;23;20613;-89
2022/10/30 03:47:33;;;;;;;9.67;8.77;;;;;;;10.50;100.00;100010.84;6019614;23;20212;-90
2022/10/30 03:50:00;;;;;;;10.57;9.67;;;;;;;10.46;100.00;100006.09;6067069;23;20319;-90
2022/10/30 03:52:27;;;;;;;21.93;9.83;;;;;;;10.49;100.00;100008.38;6042443;23;20565;-89
2022/10/30 03:54:54;;;;;;;9.87;8.93;;;;;;;10.51;100.00;100012.50;5995531;23;20205;-89
2022/10/30 03:57:20;;;;;;;29.10;9.90;;;;;;;10.50;100.00;100013.50;6019633;23;20264;-90
2022/10/30 04:00:02;;;;;;;18.97;9.07;;;;;;;10.55;100.00;100011.03;6021633;23;20283;-90
2022/10/30 04:02:51;;;;;;;66.33;10.13;;;;;;;10.48;100.00;100010.25;6066795;23;20210;-88
2022/10/30 04:05:20;;;;;;;23.57;9.20;;;;;;;10.37;100.00;99993.97;6019376;23;20209;-89
2022/10/30 04:07:47;;;;;;;10.40;8.93;;;;;;;10.42;100.00;100007.56;5996257;23;20288;-89
2022/10/30 04:10:14;;;;;;;27.57;9.10;;;;;;;10.40;100.00;99999.75;6018443;23;20217;-89
2022/10/30 04:12:49;;;;;;;14.00;9.60;;;;;;;10.39;100.00;100011.50;6020837;23;20263;-90
2022/10/30 04:15:16;;;;;;;22.63;9.50;;;;;;;10.46;100.00;100020.34;6019409;23;20239;-90
2022/10/30 04:17:50;;;;;;;36.57;9.40;;;;;;;10.45;100.00;100007.16;6042729;23;20658;-89
2022/10/30 04:20:18;;;;;;;25.10;9.00;;;;;;;10.42;100.00;100005.72;6018968;23;20213;-89
2022/10/30 04:22:45;;;;;;;29.23;9.43;;;;;;;10.43;100.00;100018.09;5996042;23;20663;-89
2022/10/30 04:25:17;;;;;;;13.30;9.00;;;;;;;10.44;100.00;100016.22;6043336;23;20278;-89
2022/10/30 04:27:48;;;;;;;24.60;9.23;;;;;;;10.38;100.00;100017.06;6067926;23;20302;-89
2022/10/30 04:30:16;;;;;;;59.07;9.67;;;;;;;10.42;100.00;100015.59;6025122;23;20295;-88
2022/10/30 04:32:51;;;;;;;33.57;8.90;;;;;;;10.44;100.00;100014.38;6023716;23;20208;-87
2022/10/30 04:35:20;;;;;;;37.03;9.20;;;;;;;10.36;100.00;100014.56;6045390;23;20209;-88
2022/10/30 04:41:45;;;;;;;24.67;8.43;;;;;;;10.23;100.00;100008.41;6056821;23;20295;-88
2022/10/30 04:44:19;;;;;;;42.70;9.10;;;;;;;10.29;100.00;100020.97;5991484;23;20214;-87
2022/10/30 04:46:46;;;;;;;35.47;8.97;;;;;;;10.27;100.00;100021.19;5991210;23;20242;-88
2022/10/30 04:49:13;;;;;;;57.80;9.70;;;;;;;10.28;100.00;100017.47;5990815;23;20226;-87
2022/10/30 04:51:40;;;;;;;46.10;9.20;;;;;;;10.24;100.00;100024.28;5991485;23;20296;-87
2022/10/30 04:54:07;;;;;;;60.90;9.23;;;;;;;10.19;100.00;100020.59;5990747;23;20545;-86
2022/10/30 04:56:36;;;;;;;56.03;8.97;;;;;;;10.13;100.00;100008.81;6014695;23;20205;-87
2022/10/30 04:59:03;;;;;;;38.20;9.60;;;;;;;10.20;100.00;100017.72;6014125;23;20666;-88
2022/10/30 05:01:30;;;;;;;31.90;9.20;;;;;;;10.10;100.00;100018.09;6014490;23;20229;-88
2022/10/30 05:03:57;;;;;;;39.10;9.93;;;;;;;10.09;100.00;100023.63;5990603;23;20224;-87
2022/10/30 05:06:26;;;;;;;46.23;9.57;;;;;;;10.11;100.00;100017.06;5985653;23;20201;-86
2022/10/30 05:08:54;;;;;;;32.27;8.90;;;;;;;10.05;100.00;100017.06;5986749;23;20202;-86
2022/10/30 05:11:33;;;;;;;23.77;8.90;;;;;;;9.98;100.00;100029.63;5966517;23;20222;-86
2022/10/30 05:14:00;;;;;;;39.37;9.30;;;;;;;9.96;100.00;100020.97;5963407;23;20592;-87
2022/10/30 05:16:27;;;;;;;17.57;9.00;;;;;;;9.91;100.00;100021.59;5986337;23;20214;-87
2022/10/30 05:18:56;;;;;;;18.40;8.23;;;;;;;9.99;100.00;100025.91;5963083;23;20270;-86
2022/10/30 05:21:22;;;;;;;13.20;8.60;;;;;;;9.97;100.00;100031.47;6009053;23;20793;-87
2022/10/30 05:23:49;;;;;;;18.77;9.03;;;;;;;10.00;100.00;100035.59;6008769;23;20221;-88
2022/10/30 05:26:16;;;;;;;10.37;8.87;;;;;;;10.04;100.00;100036.81;5962601;23;20209;-87
2022/10/30 05:28:43;;;;;;;10.30;8.63;;;;;;;10.04;100.00;100039.50;5986330;23;20194;-88
2022/10/30 05:31:10;;;;;;;16.10;8.13;;;;;;;10.07;100.00;100042.59;5962891;23;20269;-88
2022/10/30 05:33:59;;;;;;;11.10;8.60;;;;;;;10.05;100.00;100041.97;5970653;23;20210;-88
2022/10/30 05:36:32;;;;;;;22.37;8.47;;;;;;;10.06;100.00;100042.81;5985083;23;20205;-88
2022/10/30 05:39:01;;;;;;;32.03;8.40;;;;;;;10.09;100.00;100045.06;5985614;23;20214;-88
2022/10/30 05:41:32;;;;;;;12.57;8.37;;;;;;;10.07;100.00;100031.91;5964456;23;20214;-88
2022/10/30 05:43:58;;;;;;;17.47;8.53;;;;;;;10.12;100.00;100042.78;5939968;23;20247;-88
2022/10/30 05:46:25;;;;;;;14.40;7.90;;;;;;;10.16;100.00;100037.91;5962136;23;20209;-87
2022/10/30 05:48:53;;;;;;;8.80;7.63;;;;;;;10.17;100.00;100039.56;5963058;23;20270;-88
2022/10/30 05:51:21;;;;;;;13.20;8.57;;;;;;;10.20;100.00;100033.78;5985799;23;20267;-88
2022/10/30 05:53:51;;;;;;;21.07;8.80;;;;;;;10.26;100.00;100038.31;5985685;23;20218;-87
2022/10/30 05:56:22;;;;;;;21.33;7.73;;;;;;;10.22;100.00;100033.56;5986055;23;20254;-87
2022/10/30 05:58:49;;;;;;;8.63;7.53;;;;;;;10.21;100.00;100045.31;5962437;23;20214;-86
2022/10/30 06:01:16;;;;;;;12.43;7.63;;;;;;;10.25;100.00;100044.69;5985530;23;20266;-88
2022/10/30 06:03:48;;;;;;;9.83;7.93;;;;;;;10.23;100.00;100044.06;5985213;23;20594;-87
2022/10/30 06:06:15;;;;;;;15.90;7.53;;;;;;;10.27;100.00;100047.13;5985652;23;20210;-87
2022/10/30 06:08:42;;;;;;;13.77;7.87;;;;;;;10.27;100.00;100045.28;5964256;23;20246;-87
2022/10/30 06:11:31;;;;;;;7.97;7.17;;;;;;;10.34;100.00;100051.47;5968381;23;20214;-87
2022/10/30 06:13:59;;;;;;;8.37;7.50;;;;;;;10.31;100.00;100057.22;5987867;23;20214;-87
2022/10/30 06:16:45;;;;;;;7.77;7.17;;;;;;;10.30;100.00;100046.75;5991034;23;20586;-88
2022/10/30 06:19:22;;;;;;;14.20;7.67;;;;;;;10.30;100.00;100044.06;5966037;23;20690;-88
2022/10/30 06:21:50;;;;;;;20.37;7.33;;;;;;;10.41;100.00;100056.81;5987024;23;20266;-88
2022/10/30 06:24:30;;;;;;;12.77;7.60;;;;;;;10.46;100.00;100065.03;5969693;23;20266;-89
2022/10/30 06:27:05;;;;;;;32.40;6.73;;;;;;;10.57;100.00;100073.28;5965797;23;20209;-87
2022/10/30 06:29:32;;;;;;;15.20;8.03;;;;;;;10.37;100.00;100074.31;5989371;23;20274;-87
2022/10/30 06:31:59;;;;;;;9.53;8.50;;;;;;;10.40;100.00;100077.44;5964402;23;20206;-88
2022/10/30 06:34:32;;;;;;;10.57;8.87;;;;;;;10.42;100.00;100070.00;5964916;23;20210;-88
2022/10/30 06:36:58;;;;;;;12.47;8.20;;;;;;;10.46;100.00;100070.41;5963291;23;20727;-88
2022/10/30 06:39:26;;;;;;;22.17;7.73;;;;;;;10.50;100.00;100077.81;5964251;23;20210;-89
2022/10/30 06:42:16;;;;;;;33.20;7.50;;;;;;;10.57;100.00;100078.66;6011295;23;20210;-86
2022/10/30 06:45:01;;;;;;;30.50;7.63;;;;;;;10.47;100.00;100078.25;6019759;23;20557;-86
2022/10/30 06:47:33;;;;;;;15.33;7.63;;;;;;;10.51;100.00;100075.97;5964700;23;20214;-87
2022/10/30 06:50:01;;;;;;;16.37;6.83;;;;;;;10.64;100.00;100083.97;5986479;23;20210;-87
2022/10/30 06:52:29;;;;;;;17.43;7.60;;;;;;;10.68;100.00;100077.19;5963894;23;20214;-87
2022/10/30 06:54:55;;;;;;;12.03;6.77;;;;;;;10.73;100.00;100073.88;5962463;23;20225;-87
2022/10/30 06:57:44;;;;;;;16.00;8.40;;;;;;;10.74;100.00;100083.53;5968104;23;20241;-87
2022/10/30 07:00:34;;;;;;;11.33;6.83;;;;;;;10.79;100.00;100089.94;5999978;23;20598;-87
2022/10/30 07:03:20;;;;;;;17.43;6.97;;;;;;;10.76;100.00;100087.69;5991220;23;20621;-88
2022/10/30 07:05:47;;;;;;;17.87;6.93;;;;;;;10.85;100.00;100082.91;5987249;23;20214;-87
2022/10/30 07:08:14;;;;;;;16.63;6.77;;;;;;;10.86;100.00;100085.38;5962774;23;20214;-88
2022/10/30 07:10:42;;;;;;;13.70;6.93;;;;;;;10.92;100.00;100081.03;5987016;23;20210;-88
2022/10/30 07:13:28;;;;;;;10.83;6.90;;;;;;;11.03;100.00;100078.53;5975724;23;20210;-88
2022/10/30 07:16:03;;;;;;;18.90;6.90;;;;;;;11.01;100.00;100074.41;5986165;23;20233;-89
2022/10/30 07:18:34;;;;;;;14.73;7.10;;;;;;;11.11;100.00;100076.63;5985989;23;20612;-89
2022/10/30 07:21:01;;;;;;;10.83;8.30;;;;;;;11.09;100.00;100070.66;5986834;23;20213;-89
2022/10/30 07:23:28;;;;;;;10.53;6.93;;;;;;;11.16;100.00;100061.56;5963274;23;20557;-89
2022/10/30 07:26:16;;;;;;;8.00;7.20;;;;;;;11.30;100.00;100057.78;5970835;23;20217;-89
2022/10/30 07:28:44;;;;;;;9.70;8.90;;;;;;;11.43;100.00;100059.59;5987356;23;20222;-88
2022/10/30 07:31:50;;;;;;;9.20;7.33;;;;;;;11.52;100.00;100044.88;5898769;24;20683;-90
2022/10/30 07:34:48;;;;;;;9.07;8.27;;;;;;;11.69;100.00;100040.63;5840597;24;20209;-89
2022/10/30 07:37:44;;;;;;;11.90;10.90;;;;;;;11.78;100.00;100038.53;5967956;23;20225;-89
2022/10/30 07:40:13;;;;;;;9.03;7.47;;;;;;;11.77;100.00;100032.34;6009466;23;20211;-89
2022/10/30 07:42:43;;;;;;;7.07;6.57;;;;;;;11.82;100.00;100031.69;5959432;24;20211;-89
2022/10/30 07:45:46;;;;;;;7.23;6.53;;;;;;;11.92;100.00;100048.13;5909422;24;20212;-90
2022/10/30 07:48:30;;;;;;;6.67;6.07;;;;;;;11.95;100.00;100055.75;5939936;23;20249;-90
2022/10/30 07:51:05;;;;;;;7.23;6.03;;;;;;;12.03;100.00;100050.13;5965012;23;20221;-90
2022/10/30 07:53:32;;;;;;;7.17;6.57;;;;;;;12.06;100.00;100040.81;5986291;23;20246;-90
2022/10/30 07:55:59;;;;;;;6.83;6.23;;;;;;;12.12;100.00;100048.00;5986316;23;20210;-88
2022/10/30 07:58:45;;;;;;;7.10;6.40;;;;;;;12.22;100.00;100062.59;5970551;23;20602;-89
2022/10/30 08:01:34;;;;;;;5.97;5.47;;;;;;;12.21;100.00;100054.72;5967513;23;20233;-90
2022/10/30 08:04:21;;;;;;;7.40;6.73;;;;;;;12.27;100.00;100060.03;6009119;23;20238;-90
2022/10/30 08:06:54;;;;;;;6.03;5.50;;;;;;;12.38;100.00;100060.34;5985772;23;20216;-89
2022/10/30 08:09:21;;;;;;;5.60;5.20;;;;;;;12.39;100.00;100062.00;6010108;23;20223;-91
2022/10/30 08:11:47;;;;;;;5.20;4.80;;;;;;;12.47;100.00;100064.41;5963367;23;20213;-90
2022/10/30 08:14:15;;;;;;;5.30;4.90;;;;;;;12.53;100.00;100066.22;5985610;23;20215;-90
2022/10/30 08:16:41;;;;;;;5.67;4.93;;;;;;;12.58;100.00;100061.00;5986367;23;20215;-91
2022/10/30 08:19:08;;;;;;;8.40;5.03;;;;;;;12.60;100.00;100053.53;5986354;23;20293;-90
2022/10/30 08:21:35;;;;;;;6.07;5.57;;;;;;;12.63;100.00;100045.84;5986567;23;20216;-90
2022/10/30 08:24:09;;;;;;;6.53;5.47;;;;;;;12.68;100.00;100050.56;6007306;23;20227;-90
2022/10/30 08:26:39;;;;;;;6.00;5.50;;;;;;;12.76;100.00;100050.25;5986215;23;20215;-90
2022/10/30 08:29:07;;;;;;;5.90;5.40;;;;;;;12.80;100.00;100054.16;5963108;23;20223;-89
2022/10/30 08:31:34;;;;;;;6.10;5.60;;;;;;;12.91;100.00;100048.03;5935895;24;20220;-90
2022/10/30 08:34:01;;;;;;;5.70;5.30;;;;;;;12.95;100.00;100051.91;5984405;23;20213;-90
2022/10/30 08:36:50;;;;;;;14.30;10.73;;;;;;;13.08;100.00;100049.06;5987240;23;20214;-93
2022/10/30 08:39:17;;;;;;;22.23;12.90;;;;;;;13.14;100.00;100050.06;5987025;23;20242;-92
2022/10/30 08:41:52;;;;;;;6.90;6.03;;;;;;;13.05;100.00;100052.22;5965048;23;20725;-92
2022/10/30 08:44:20;;;;;;;6.40;5.90;;;;;;;13.16;100.00;100051.47;5985914;23;20216;-91
2022/10/30 08:47:10;;;;;;;13.03;11.83;;;;;;;13.28;100.00;100032.69;5970133;23;20217;-91
2022/10/30 08:49:38;;;;;;;6.90;6.40;;;;;;;13.44;100.00;100033.91;5986864;23;20264;-92
2022/10/30 08:52:08;;;;;;;6.27;5.50;;;;;;;13.60;100.00;100035.97;5940220;23;20580;-91
2022/10/30 08:54:35;;;;;;;6.17;5.57;;;;;;;13.57;100.00;100036.44;6010619;23;20216;-91
2022/10/30 08:57:02;;;;;;;13.23;5.73;;;;;;;13.53;100.00;100032.56;5963612;23;20239;-92
2022/10/30 08:59:28;;;;;;;6.80;6.20;;;;;;;13.51;100.00;100030.09;5987082;23;20210;-93
2022/10/30 09:02:01;;;;;;;7.90;7.20;;;;;;;13.64;100.00;100029.09;5987388;23;20216;-92
2022/10/30 09:04:46;;;;;;;9.30;6.03;;;;;;;13.72;100.00;100033.34;5970485;23;20218;-82
2022/10/30 09:07:45;;;;;;;6.47;5.90;;;;;;;13.60;100.00;100030.59;6009167;23;20212;-82
2022/10/30 09:10:38;;;;;;;7.07;6.27;;;;;;;13.59;100.00;100037.84;5975954;23;20237;-83
2022/10/30 09:13:06;;;;;;;6.87;6.27;;;;;;;13.60;100.00;100038.66;5985013;23;20217;-82
2022/10/30 09:15:33;;;;;;;6.77;6.20;;;;;;;13.63;100.00;100038.19;5984507;23;20218;-83
2022/10/30 09:18:02;;;;;;;9.27;6.50;;;;;;;13.65;100.00;100034.25;6008268;23;20280;-83
2022/10/30 09:20:29;;;;;;;7.40;6.27;;;;;;;13.41;100.00;100037.06;5984177;23;20210;-83
2022/10/30 09:22:57;;;;;;;6.73;6.03;;;;;;;13.57;100.00;100039.97;5961803;23;20691;-81
2022/10/30 09:25:25;;;;;;;9.43;6.53;;;;;;;13.66;100.00;100038.59;6031941;23;20220;-82
2022/10/30 09:28:05;;;;;;;9.77;6.60;;;;;;;13.71;100.00;100039.75;5984427;23;20289;-83
2022/10/30 09:30:51;;;;;;;9.47;6.97;;;;;;;13.68;100.00;100039.16;5984769;23;20212;-83
2022/10/30 09:33:19;;;;;;;7.00;6.40;;;;;;;13.70;100.00;100038.94;5985695;23;20210;-82
2022/10/30 09:36:06;;;;;;;8.33;7.53;;;;;;;13.64;100.00;100040.69;6017510;23;20693;-83
2022/10/30 09:38:33;;;;;;;12.63;7.53;;;;;;;13.65;100.00;100034.25;6009544;23;20209;-82
2022/10/30 09:41:18;;;;;;;8.20;7.53;;;;;;;13.68;100.00;100041.84;6007530;23;20673;-82
2022/10/30 09:44:07;;;;;;;8.87;7.97;;;;;;;13.84;100.00;100040.38;5961598;23;20532;-83
2022/10/30 09:46:35;;;;;;;9.20;8.40;;;;;;;14.04;100.00;100043.56;5961373;23;20219;-82
2022/10/30 09:49:54;;;;;;;9.30;8.50;;;;;;;14.18;100.00;100036.13;5961499;23;20213;-83
2022/10/30 09:52:44;;;;;;;9.87;9.03;;;;;;;14.22;100.00;100041.84;5938013;23;20282;-83
2022/10/30 09:55:37;;;;;;;9.30;8.50;;;;;;;14.13;100.00;100041.38;5983769;23;20214;-83
2022/10/30 09:58:07;;;;;;;9.93;9.03;;;;;;;14.09;100.00;100034.81;6009326;23;20556;-83
2022/10/30 10:00:39;;;;;;;9.47;8.33;;;;;;;14.13;100.00;100037.84;6031219;23;20216;-85
2022/10/30 10:03:33;;;;;;;9.60;8.70;;;;;;;14.19;100.00;100037.72;5962784;23;20269;-83
2022/10/30 10:06:23;;;;;;;9.53;8.73;;;;;;;14.28;100.00;100036.34;5935028;23;20214;-83
2022/10/30 10:09:17;;;;;;;8.80;8.10;;;;;;;14.36;100.00;100035.22;5968354;23;20206;-83
2022/10/30 10:11:53;;;;;;;9.73;8.73;;;;;;;14.48;100.00;100039.53;5992253;23;20213;-83
2022/10/30 10:14:23;;;;;;;9.90;9.10;;;;;;;14.54;100.00;100038.59;5985636;23;20597;-83
2022/10/30 10:16:55;;;;;;;9.37;8.47;;;;;;;14.68;100.00;100032.97;5984693;23;20555;-83
2022/10/30 10:19:48;;;;;;;9.57;8.80;;;;;;;14.78;100.00;100039.41;6009143;23;20288;-84
2022/10/30 10:22:48;;;;;;;10.20;9.30;;;;;;;14.86;100.00;100028.25;5982666;23;20214;-82
2022/10/30 10:25:18;;;;;;;10.23;9.33;;;;;;;14.79;100.00;100030.22;5922503;23;20218;-82
2022/10/30 10:27:59;;;;;;;10.50;9.50;;;;;;;14.87;100.00;100027.19;6008393;23;20218;-83
2022/10/30 10:30:33;;;;;;;20.30;18.20;;;;;;;14.88;100.00;100022.63;6008612;23;20285;-83
2022/10/30 10:33:17;;;;;;;12.87;10.77;;;;;;;14.90;100.00;100020.50;5984815;23;20262;-84
2022/10/30 10:36:09;;;;;;;9.63;8.77;;;;;;;14.81;100.00;100020.03;5984520;23;20306;-84
2022/10/30 10:38:47;;;;;;;8.97;8.23;;;;;;;14.75;100.00;100020.16;5984872;23;20210;-93
2022/10/30 10:41:32;;;;;;;9.50;8.50;;;;;;;14.70;100.00;100022.75;5962869;23;20685;-94
2022/10/30 10:43:59;;;;;;;9.50;8.70;;;;;;;14.66;100.00;100019.72;5986647;23;20656;-91
2022/10/30 10:46:44;;;;;;;9.93;9.03;;;;;;;14.67;100.00;100010.56;6006894;23;20210;-91
2022/10/30 10:49:29;;;;;;;9.50;8.70;;;;;;;14.75;100.00;100020.97;5986335;23;20214;-93
2022/10/30 10:52:04;;;;;;;8.50;7.80;;;;;;;14.73;100.00;100012.31;5986552;23;20218;-92
2022/10/30 10:54:50;;;;;;;9.50;8.70;;;;;;;14.84;100.00;100016.03;5964743;23;20574;-91
2022/10/30 10:57:28;;;;;;;10.20;9.23;;;;;;;14.93;100.00;100009.25;6011279;23;20237;-93
2022/10/30 11:00:00;;;;;;;10.23;9.33;;;;;;;14.91;100.00;100012.16;5964811;23;20212;-93
2022/10/30 11:02:30;;;;;;;9.87;9.00;;;;;;;14.78;100.00;100007.03;5941775;23;20242;-95
2022/10/30 11:05:06;;;;;;;10.70;9.67;;;;;;;14.73;100.00;100003.41;6012035;23;20222;-93
2022/10/30 11:07:57;;;;;;;10.37;9.47;;;;;;;14.73;100.00;100001.53;5964420;23;20300;-89
2022/10/30 11:10:25;;;;;;;10.43;9.53;;;;;;;14.63;100.00;100005.88;5963746;23;20202;-87
2022/10/30 11:12:51;;;;;;;10.93;9.93;;;;;;;14.10;100.00;100009.50;5986923;23;20220;-84
2022/10/30 11:15:49;;;;;;;9.90;9.10;;;;;;;13.95;100.00;100009.16;5987073;23;20285;-87
2022/10/30 11:18:16;;;;;;;10.77;9.80;;;;;;;14.07;100.00;100005.41;5986704;23;20240;-91
2022/10/30 11:21:17;;;;;;;10.60;9.70;;;;;;;14.06;100.00;100009.16;6034095;23;20223;-90
2022/10/30 11:23:46;;;;;;;10.33;9.33;;;;;;;14.14;100.00;100001.78;6010287;23;20271;-90
2022/10/30 11:26:16;;;;;;;10.80;9.77;;;;;;;14.03;100.00;99998.03;5963617;23;20220;-88
2022/10/30 11:28:49;;;;;;;11.47;10.47;;;;;;;13.85;100.00;99993.56;5964116;23;20213;-90
2022/10/30 11:31:39;;;;;;;11.10;10.10;;;;;;;14.02;100.00;99997.19;5964140;23;20230;-90
2022/10/30 11:34:17;;;;;;;11.03;10.07;;;;;;;14.15;100.00;99993.44;5986749;23;20218;-90
2022/10/30 11:36:45;;;;;;;11.70;10.60;;;;;;;14.30;100.00;99992.97;5987583;23;20214;-90
2022/10/30 11:39:18;;;;;;;11.83;10.77;;;;;;;14.30;100.00;99990.28;5987707;23;20211;-90
2022/10/30 11:42:12;;;;;;;13.03;11.83;;;;;;;14.31;100.00;99987.38;5964018;23;20911;-90